createdAt,value
2018-11-07T00:01:59.044Z,92.80
2018-11-07T00:04:27.154Z,92.90
2018-11-07T00:06:55.313Z,92.90
2018-11-07T00:09:23.411Z,92.90
2018-11-07T00:11:51.522Z,93.00
2018-11-07T00:14:19.617Z,92.90
2018-11-07T00:16:47.743Z,92.90
2018-11-07T00:19:15.838Z,92.90
2018-11-07T00:21:43.932Z,92.90
2018-11-07T00:24:12.050Z,92.90
2018-11-07T00:26:40.175Z,93.00
2018-11-07T00:29:08.525Z,93.20
2018-11-07T00:31:36.629Z,93.20
2018-11-07T00:34:04.794Z,93.40
2018-11-07T00:36:32.911Z,93.40
2018-11-07T00:39:01.021Z,93.30
2018-11-07T00:41:29.137Z,93.40
2018-11-07T00:43:57.247Z,93.40
2018-11-07T00:46:25.356Z,93.60
2018-11-07T00:48:53.469Z,93.80
2018-11-07T00:51:21.582Z,93.50
2018-11-07T00:53:49.677Z,93.50
2018-11-07T00:56:17.802Z,93.60
2018-11-07T00:58:45.921Z,93.40
2018-11-07T01:01:14.036Z,93.50
2018-11-07T01:03:42.161Z,93.50
2018-11-07T01:06:10.261Z,93.50
2018-11-07T01:08:39.060Z,93.30
2018-11-07T01:11:07.289Z,93.30
2018-11-07T01:13:35.766Z,93.20
2018-11-07T01:16:03.877Z,93.20
2018-11-07T01:18:31.989Z,93.40
2018-11-07T01:21:00.088Z,93.20
2018-11-07T01:23:28.215Z,93.30
2018-11-07T01:25:56.357Z,93.00
2018-11-07T01:28:24.645Z,93.00
2018-11-07T01:30:52.629Z,92.90
2018-11-07T01:33:20.749Z,92.90
2018-11-07T01:35:48.868Z,92.80
2018-11-07T01:38:17.089Z,93.00
2018-11-07T01:40:45.250Z,92.70
2018-11-07T01:43:13.373Z,92.60
2018-11-07T01:45:41.485Z,92.50
2018-11-07T01:48:09.614Z,92.40
2018-11-07T01:50:37.729Z,92.60
2018-11-07T01:53:05.839Z,92.90
2018-11-07T01:55:33.950Z,93.00
2018-11-07T01:58:02.062Z,92.90
2018-11-07T02:00:30.216Z,93.10
2018-11-07T02:02:58.361Z,93.20
2018-11-07T02:05:26.509Z,93.20
2018-11-07T02:07:54.661Z,93.20
2018-11-07T02:10:22.802Z,93.60
2018-11-07T02:12:50.950Z,93.40
2018-11-07T02:15:19.093Z,93.40
2018-11-07T02:17:47.234Z,93.40
2018-11-07T02:20:15.357Z,93.40
2018-11-07T02:22:43.510Z,93.50
2018-11-07T02:25:11.652Z,93.60
2018-11-07T02:27:40.497Z,93.50
2018-11-07T02:30:12.895Z,93.50
2018-11-07T02:32:41.035Z,93.60
2018-11-07T02:35:09.308Z,93.90
2018-11-07T02:37:37.470Z,93.80
2018-11-07T02:40:06.228Z,93.90
2018-11-07T02:42:34.389Z,93.70
2018-11-07T02:45:02.522Z,93.50
2018-11-07T02:47:30.655Z,93.30
2018-11-07T02:49:58.798Z,93.80
2018-11-07T02:52:26.962Z,94.10
2018-11-07T02:54:55.098Z,94.30
2018-11-07T02:57:23.241Z,94.20
2018-11-07T02:59:51.384Z,94.30
2018-11-07T03:02:19.526Z,94.40
2018-11-07T03:04:47.662Z,94.30
2018-11-07T03:07:15.842Z,94.20
2018-11-07T03:09:43.981Z,94.20
2018-11-07T03:12:12.124Z,94.10
2018-11-07T03:14:40.267Z,93.90
2018-11-07T03:17:08.410Z,93.70
2018-11-07T03:19:36.556Z,93.90
2018-11-07T03:22:04.724Z,94.30
2018-11-07T03:24:33.005Z,94.30
2018-11-07T03:27:01.154Z,94.10
2018-11-07T03:29:29.293Z,94.00
2018-11-07T03:31:57.462Z,94.00
2018-11-07T03:34:25.610Z,94.00
2018-11-07T03:36:53.753Z,93.80
2018-11-07T03:39:21.884Z,93.90
2018-11-07T03:41:50.031Z,93.70
2018-11-07T03:44:18.148Z,93.20
2018-11-07T03:46:46.300Z,93.50
2018-11-07T03:49:14.516Z,93.90
2018-11-07T03:51:42.662Z,94.20
2018-11-07T03:54:10.794Z,94.40
2018-11-07T03:56:38.912Z,94.60
2018-11-07T03:59:07.045Z,94.60
2018-11-07T04:01:35.159Z,94.40
2018-11-07T04:04:03.296Z,94.30
2018-11-07T04:06:31.396Z,94.20
2018-11-07T04:08:59.496Z,94.30
2018-11-07T04:11:27.618Z,94.40
2018-11-07T04:13:55.720Z,94.20
2018-11-07T04:16:23.849Z,94.20
2018-11-07T04:18:51.970Z,94.20
2018-11-07T04:21:20.071Z,94.50
2018-11-07T04:23:52.418Z,94.40
2018-11-07T04:26:20.526Z,94.20
2018-11-07T04:28:48.640Z,94.30
2018-11-07T04:31:16.756Z,94.40
2018-11-07T04:33:44.881Z,94.40
2018-11-07T04:36:12.990Z,94.40
2018-11-07T04:38:41.287Z,94.30
2018-11-07T04:41:09.384Z,94.50
2018-11-07T04:43:37.503Z,94.50
2018-11-07T04:46:05.627Z,94.30
2018-11-07T04:48:33.738Z,94.30
2018-11-07T04:51:01.879Z,94.40
2018-11-07T04:53:30.018Z,94.20
2018-11-07T04:55:58.138Z,94.20
2018-11-07T04:58:26.248Z,94.20
2018-11-07T05:00:54.425Z,94.40
2018-11-07T05:03:22.614Z,94.20
2018-11-07T05:05:50.786Z,94.10
2018-11-07T05:08:18.920Z,93.90
2018-11-07T05:10:47.049Z,93.80
2018-11-07T05:13:15.253Z,93.90
2018-11-07T05:15:43.401Z,93.90
2018-11-07T05:18:11.542Z,93.90
2018-11-07T05:20:39.690Z,93.90
2018-11-07T05:23:07.820Z,94.00
2018-11-07T05:25:35.961Z,93.70
2018-11-07T05:28:04.270Z,93.60
2018-11-07T05:30:32.414Z,93.90
2018-11-07T05:33:00.550Z,93.90
2018-11-07T05:35:28.722Z,94.00
2018-11-07T05:37:56.861Z,93.80
2018-11-07T05:40:24.988Z,93.50
2018-11-07T05:42:53.122Z,93.60
2018-11-07T05:45:21.354Z,93.50
2018-11-07T05:47:49.481Z,93.50
2018-11-07T05:50:17.632Z,93.40
2018-11-07T05:52:45.789Z,93.60
2018-11-07T05:55:13.932Z,93.30
2018-11-07T05:57:42.044Z,93.40
2018-11-07T06:00:11.507Z,93.30
2018-11-07T06:02:40.063Z,93.40
2018-11-07T06:05:09.158Z,93.50
2018-11-07T06:07:37.928Z,93.80
2018-11-07T06:10:07.793Z,93.70
2018-11-07T06:12:36.232Z,93.60
2018-11-07T06:15:05.098Z,93.80
2018-11-07T06:17:33.200Z,93.80
2018-11-07T06:20:01.296Z,94.10
2018-11-07T06:22:29.418Z,94.20
2018-11-07T06:24:57.582Z,94.20
2018-11-07T06:27:25.641Z,94.10
2018-11-07T06:29:53.740Z,93.90
2018-11-07T06:32:21.840Z,94.00
2018-11-07T06:34:51.038Z,93.80
2018-11-07T06:37:19.586Z,93.70
2018-11-07T06:39:47.687Z,93.50
2018-11-07T06:42:15.776Z,93.30
2018-11-07T06:44:43.906Z,93.40
2018-11-07T06:47:12.010Z,93.60
2018-11-07T06:49:40.121Z,93.50
2018-11-07T06:52:08.240Z,93.60
2018-11-07T06:54:36.354Z,93.70
2018-11-07T06:57:04.468Z,93.60
2018-11-07T06:59:32.580Z,93.50
2018-11-07T07:02:00.717Z,93.30
2018-11-07T07:04:28.879Z,93.30
2018-11-07T07:06:57.004Z,93.30
2018-11-07T07:09:25.146Z,93.60
2018-11-07T07:11:53.277Z,93.50
2018-11-07T07:14:21.415Z,93.50
2018-11-07T07:16:49.552Z,93.30
2018-11-07T07:19:17.685Z,93.40
2018-11-07T07:21:45.813Z,93.40
2018-11-07T07:24:14.057Z,93.30
2018-11-07T07:26:42.211Z,93.00
2018-11-07T07:29:10.354Z,92.60
2018-11-07T07:31:38.481Z,92.60
2018-11-07T07:34:06.629Z,92.40
2018-11-07T07:36:34.762Z,92.30
2018-11-07T07:39:03.280Z,92.10
2018-11-07T07:41:31.418Z,91.60
2018-11-07T07:43:59.558Z,91.60
2018-11-07T07:46:27.714Z,91.40
2018-11-07T07:48:55.869Z,91.20
2018-11-07T07:51:23.996Z,90.90
2018-11-07T07:53:52.187Z,90.50
2018-11-07T07:56:20.271Z,90.10
2018-11-07T07:58:48.397Z,89.70
2018-11-07T08:01:16.614Z,89.20
2018-11-07T08:03:44.702Z,88.70
2018-11-07T08:06:12.800Z,87.60
2018-11-07T08:08:40.900Z,86.80
2018-11-07T08:11:09.112Z,85.70
2018-11-07T08:13:37.267Z,84.80
2018-11-07T08:16:05.360Z,84.30
2018-11-07T08:18:33.468Z,83.60
2018-11-07T08:21:01.647Z,82.80
2018-11-07T08:23:29.706Z,83.50
2018-11-07T08:25:57.837Z,81.70
2018-11-07T08:28:25.953Z,81.80
2018-11-07T08:30:54.085Z,81.80
2018-11-07T08:33:22.158Z,80.50
2018-11-07T08:35:50.255Z,81.40
2018-11-07T08:38:18.372Z,80.80
2018-11-07T08:40:46.505Z,80.00
2018-11-07T08:43:14.600Z,78.70
2018-11-07T08:45:42.701Z,78.90
2018-11-07T08:48:10.849Z,78.30
2018-11-07T08:50:38.921Z,78.10
2018-11-07T08:53:07.032Z,77.90
2018-11-07T08:55:35.160Z,77.20
2018-11-07T08:58:03.262Z,77.00
2018-11-07T09:00:31.375Z,75.70
2018-11-07T09:02:59.522Z,76.20
2018-11-07T09:05:27.665Z,75.20
2018-11-07T09:07:55.802Z,74.90
2018-11-07T09:10:24.522Z,75.10
2018-11-07T09:12:52.665Z,74.30
2018-11-07T09:15:22.072Z,74.70
2018-11-07T09:17:50.198Z,74.30
2018-11-07T09:20:19.654Z,74.20
2018-11-07T09:22:47.798Z,74.30
2018-11-07T09:25:16.407Z,72.90
2018-11-07T09:27:45.294Z,73.30
2018-11-07T09:30:15.489Z,73.40
2018-11-07T09:32:43.683Z,73.10
2018-11-07T09:35:12.463Z,72.70
2018-11-07T09:37:40.608Z,73.50
2018-11-07T09:40:13.034Z,73.20
2018-11-07T09:42:41.803Z,73.00
2018-11-07T09:45:11.739Z,71.80
2018-11-07T09:47:40.625Z,72.60
2018-11-07T09:50:09.640Z,72.30
2018-11-07T09:52:38.213Z,72.50
2018-11-07T09:55:07.774Z,72.00
2018-11-07T09:57:35.972Z,73.20
2018-11-07T10:00:05.978Z,72.60
2018-11-07T10:02:34.113Z,73.40
2018-11-07T10:05:02.261Z,72.90
2018-11-07T10:07:30.383Z,72.30
2018-11-07T10:09:58.516Z,71.90
2018-11-07T10:12:26.725Z,71.60
2018-11-07T10:14:54.846Z,72.10
2018-11-07T10:17:22.988Z,72.30
2018-11-07T10:19:51.126Z,71.60
2018-11-07T10:22:19.265Z,72.30
2018-11-07T10:24:47.395Z,73.00
2018-11-07T10:27:15.809Z,72.20
2018-11-07T10:29:44.376Z,72.30
2018-11-07T10:32:12.124Z,72.70
2018-11-07T10:34:40.336Z,72.90
2018-11-07T10:37:08.516Z,71.30
2018-11-07T10:39:36.707Z,72.70
2018-11-07T10:42:04.855Z,72.70
2018-11-07T10:44:33.170Z,72.20
2018-11-07T10:47:01.245Z,72.50
2018-11-07T10:49:29.492Z,71.60
2018-11-07T10:51:57.743Z,71.90
2018-11-07T10:54:25.781Z,71.80
2018-11-07T10:56:53.938Z,70.80
2018-11-07T10:59:22.076Z,70.50
2018-11-07T11:01:55.670Z,70.90
2018-11-07T11:04:23.861Z,70.10
2018-11-07T11:06:51.966Z,70.50
2018-11-07T11:09:20.083Z,70.00
2018-11-07T11:11:48.196Z,70.30
2018-11-07T11:14:16.301Z,69.60
2018-11-07T11:16:44.784Z,71.10
2018-11-07T11:19:13.470Z,70.60
2018-11-07T11:21:41.916Z,70.50
2018-11-07T11:24:10.031Z,69.90
2018-11-07T11:26:38.140Z,70.20
2018-11-07T11:29:06.342Z,69.40
2018-11-07T11:31:34.504Z,69.30
2018-11-07T11:34:02.613Z,69.80
2018-11-07T11:36:30.656Z,69.60
2018-11-07T11:38:58.767Z,68.50
2018-11-07T11:41:26.877Z,69.80
2018-11-07T11:43:54.983Z,68.90
2018-11-07T11:46:23.085Z,69.70
2018-11-07T11:48:51.241Z,69.70
2018-11-07T11:51:19.353Z,68.60
2018-11-07T11:53:47.460Z,69.20
2018-11-07T11:56:15.590Z,69.30
2018-11-07T11:58:43.686Z,68.60
2018-11-07T12:01:11.781Z,68.40
2018-11-07T12:03:39.899Z,69.10
2018-11-07T12:06:08.002Z,69.30
2018-11-07T12:08:36.199Z,70.70
2018-11-07T12:11:04.201Z,69.40
2018-11-07T12:13:32.445Z,69.30
2018-11-07T12:16:00.410Z,68.70
2018-11-07T12:18:28.502Z,69.20
2018-11-07T12:20:56.632Z,69.30
2018-11-07T12:23:24.697Z,70.00
2018-11-07T12:25:52.807Z,70.20
2018-11-07T12:28:20.931Z,70.20
2018-11-07T12:30:49.043Z,69.70
2018-11-07T12:33:17.157Z,70.60
2018-11-07T12:35:45.243Z,69.90
2018-11-07T12:38:13.345Z,69.30
2018-11-07T12:40:41.434Z,69.70
2018-11-07T12:43:09.554Z,69.30
2018-11-07T12:45:37.661Z,69.80
2018-11-07T12:48:05.854Z,69.50
2018-11-07T12:50:33.938Z,68.80
2018-11-07T12:53:02.042Z,69.50
2018-11-07T12:55:30.131Z,69.80
2018-11-07T12:57:58.317Z,69.80
2018-11-07T13:00:27.345Z,70.40
2018-11-07T13:02:55.787Z,70.70
2018-11-07T13:05:24.812Z,70.30
2018-11-07T13:07:53.608Z,70.50
2018-11-07T13:10:22.392Z,70.60
2018-11-07T13:12:51.085Z,71.20
2018-11-07T13:15:19.185Z,71.10
2018-11-07T13:17:48.060Z,71.50
2018-11-07T13:20:17.958Z,71.90
2018-11-07T13:22:47.280Z,72.00
2018-11-07T13:25:15.886Z,71.40
2018-11-07T13:27:44.002Z,71.70
2018-11-07T13:30:14.703Z,71.80
2018-11-07T13:32:42.802Z,71.60
2018-11-07T13:35:11.929Z,71.90
2018-11-07T13:37:41.002Z,72.20
2018-11-07T13:40:11.574Z,72.00
2018-11-07T13:42:39.721Z,72.90
2018-11-07T13:45:09.444Z,71.60
2018-11-07T13:47:37.921Z,71.70
2018-11-07T13:50:06.085Z,72.40
2018-11-07T13:52:34.194Z,72.00
2018-11-07T13:55:03.063Z,71.80
2018-11-07T13:57:31.357Z,72.00
2018-11-07T13:59:59.490Z,72.00
2018-11-07T14:02:27.657Z,72.00
2018-11-07T14:04:55.764Z,72.30
2018-11-07T14:07:24.136Z,72.50
2018-11-07T14:09:52.413Z,72.40
2018-11-07T14:12:20.522Z,72.70
2018-11-07T14:14:48.617Z,73.10
2018-11-07T14:17:16.740Z,72.90
2018-11-07T14:19:44.883Z,73.10
2018-11-07T14:22:13.017Z,73.00
2018-11-07T14:24:41.153Z,72.90
2018-11-07T14:27:09.279Z,73.20
2018-11-07T14:29:37.368Z,73.20
2018-11-07T14:32:05.489Z,73.50
2018-11-07T14:34:33.616Z,73.20
2018-11-07T14:37:01.721Z,73.50
2018-11-07T14:39:29.839Z,73.10
2018-11-07T14:41:57.953Z,73.00
2018-11-07T14:44:26.130Z,72.90
2018-11-07T14:46:54.278Z,73.20
2018-11-07T14:49:22.332Z,72.90
2018-11-07T14:51:50.420Z,73.20
2018-11-07T14:54:18.540Z,73.10
2018-11-07T14:56:46.642Z,73.20
2018-11-07T14:59:14.750Z,73.30
2018-11-07T15:01:42.861Z,73.20
2018-11-07T15:04:10.969Z,73.60
2018-11-07T15:06:39.048Z,75.10
2018-11-07T15:09:08.497Z,71.70
2018-11-07T15:11:36.614Z,72.00
2018-11-07T15:14:04.857Z,72.10
2018-11-07T15:16:32.969Z,72.20
2018-11-07T15:19:01.099Z,72.70
2018-11-07T15:21:29.209Z,73.00
2018-11-07T15:23:57.307Z,72.90
2018-11-07T15:26:25.415Z,72.80
2018-11-07T15:28:53.525Z,73.20
2018-11-07T15:31:21.641Z,73.20
2018-11-07T15:33:49.809Z,73.50
2018-11-07T15:36:17.951Z,73.30
2018-11-07T15:38:46.017Z,73.30
2018-11-07T15:41:14.128Z,73.40
2018-11-07T15:43:42.260Z,73.60
2018-11-07T15:46:10.375Z,73.70
2018-11-07T15:48:38.494Z,74.70
2018-11-07T15:51:10.633Z,75.50
2018-11-07T15:53:38.909Z,77.40
2018-11-07T15:56:07.056Z,76.80
2018-11-07T15:58:35.156Z,79.00
2018-11-07T16:01:03.265Z,79.80
2018-11-07T16:03:36.995Z,80.20
2018-11-07T16:06:05.303Z,80.90
2018-11-07T16:08:33.390Z,81.70
2018-11-07T16:11:01.542Z,82.40
2018-11-07T16:13:29.721Z,83.10
2018-11-07T16:15:57.888Z,84.70
2018-11-07T16:18:26.047Z,84.70
2018-11-07T16:20:54.269Z,84.40
2018-11-07T16:23:22.528Z,84.80
2018-11-07T16:25:50.625Z,85.60
2018-11-07T16:28:18.733Z,85.40
2018-11-07T16:30:46.862Z,86.80
2018-11-07T16:33:15.034Z,86.90
2018-11-07T16:35:43.177Z,87.00
2018-11-07T16:38:11.317Z,86.80
2018-11-07T16:40:39.491Z,87.50
2018-11-07T16:43:07.590Z,88.10
2018-11-07T16:45:35.733Z,88.40
2018-11-07T16:48:03.889Z,88.70
2018-11-07T16:50:32.098Z,89.30
2018-11-07T16:53:00.267Z,89.80
2018-11-07T16:55:28.421Z,89.40
2018-11-07T16:57:56.641Z,89.50
2018-11-07T17:00:24.853Z,90.00
2018-11-07T17:02:52.985Z,89.90
2018-11-07T17:05:21.169Z,89.60
2018-11-07T17:07:49.308Z,90.20
2018-11-07T17:10:17.743Z,90.20
2018-11-07T17:12:45.870Z,90.40
2018-11-07T17:15:14.001Z,90.40
2018-11-07T17:17:42.150Z,89.90
2018-11-07T17:20:11.776Z,90.30
2018-11-07T17:22:40.057Z,90.70
2018-11-07T17:25:09.738Z,90.40
2018-11-07T17:27:38.041Z,90.50
2018-11-07T17:30:07.499Z,90.90
2018-11-07T17:32:35.624Z,90.70
2018-11-07T17:35:03.848Z,90.90
2018-11-07T17:37:31.996Z,90.40
2018-11-07T17:40:00.121Z,89.90
2018-11-07T17:42:28.245Z,89.60
2018-11-07T17:44:56.389Z,89.90
2018-11-07T17:47:24.529Z,89.10
2018-11-07T17:49:52.701Z,89.30
2018-11-07T17:52:20.945Z,88.80
2018-11-07T17:54:49.096Z,89.70
2018-11-07T17:57:17.226Z,90.00
2018-11-07T17:59:45.361Z,89.80
2018-11-07T18:02:13.484Z,91.00
2018-11-07T18:04:41.623Z,91.00
2018-11-07T18:07:09.758Z,90.20
2018-11-07T18:09:37.931Z,90.70
2018-11-07T18:12:06.170Z,91.00
2018-11-07T18:14:34.313Z,90.90
2018-11-07T18:17:02.457Z,90.20
2018-11-07T18:19:30.593Z,90.40
2018-11-07T18:21:58.710Z,90.00
2018-11-07T18:24:27.010Z,89.30
2018-11-07T18:26:55.174Z,89.60
2018-11-07T18:29:23.434Z,89.90
2018-11-07T18:31:51.602Z,89.90
2018-11-07T18:34:19.792Z,89.70
2018-11-07T18:36:47.953Z,89.80
2018-11-07T18:39:16.078Z,89.60
2018-11-07T18:41:44.218Z,89.30
2018-11-07T18:44:12.366Z,89.50
2018-11-07T18:46:40.573Z,89.70
2018-11-07T18:49:08.766Z,89.00
2018-11-07T18:51:36.909Z,89.40
2018-11-07T18:54:05.752Z,89.20
2018-11-07T18:56:34.062Z,89.60
2018-11-07T18:59:02.209Z,89.70
2018-11-07T19:01:30.329Z,89.30
2018-11-07T19:03:58.430Z,88.80
2018-11-07T19:06:26.624Z,88.30
2018-11-07T19:08:54.726Z,89.40
2018-11-07T19:11:22.905Z,89.20
2018-11-07T19:13:51.057Z,89.00
2018-11-07T19:16:19.186Z,89.00
2018-11-07T19:18:47.310Z,88.80
2018-11-07T19:21:15.433Z,88.20
2018-11-07T19:23:43.574Z,88.80
2018-11-07T19:26:11.702Z,89.30
2018-11-07T19:28:39.830Z,88.70
2018-11-07T19:31:08.020Z,89.00
2018-11-07T19:33:36.181Z,89.70
2018-11-07T19:36:04.598Z,89.70
2018-11-07T19:38:32.696Z,90.20
2018-11-07T19:41:00.805Z,90.30
2018-11-07T19:43:29.037Z,89.70
2018-11-07T19:45:57.206Z,90.90
2018-11-07T19:48:25.329Z,90.50
2018-11-07T19:50:53.438Z,91.00
2018-11-07T19:53:21.761Z,91.10
2018-11-07T19:55:49.880Z,92.30
2018-11-07T19:58:18.101Z,92.30
2018-11-07T20:00:46.242Z,92.60
2018-11-07T20:03:14.374Z,92.10
2018-11-07T20:05:42.496Z,91.60
2018-11-07T20:08:10.603Z,91.80
2018-11-07T20:10:38.718Z,92.30
2018-11-07T20:13:06.821Z,91.80
2018-11-07T20:15:35.072Z,92.30
2018-11-07T20:18:03.194Z,92.00
2018-11-07T20:20:31.401Z,91.70
2018-11-07T20:22:59.519Z,92.30
2018-11-07T20:25:27.624Z,91.40
2018-11-07T20:27:55.783Z,91.00
2018-11-07T20:30:24.144Z,91.10
2018-11-07T20:32:52.318Z,91.00
2018-11-07T20:35:21.345Z,91.30
2018-11-07T20:37:49.363Z,91.30
2018-11-07T20:40:18.959Z,90.70
2018-11-07T20:42:47.107Z,91.10
2018-11-07T20:45:16.008Z,91.00
2018-11-07T20:47:44.125Z,91.40
2018-11-07T20:50:13.987Z,90.90
2018-11-07T20:52:42.573Z,91.00
2018-11-07T20:55:11.568Z,90.90
2018-11-07T20:57:39.688Z,90.20
2018-11-07T21:00:10.209Z,90.70
2018-11-07T21:02:38.633Z,91.10
2018-11-07T21:05:07.113Z,90.40
2018-11-07T21:07:35.409Z,90.10
2018-11-07T21:10:03.550Z,90.70
2018-11-07T21:15:13.445Z,90.80
2018-11-07T21:17:42.335Z,90.60
2018-11-07T21:20:10.597Z,90.40
2018-11-07T21:22:39.336Z,90.50
2018-11-07T21:25:07.500Z,90.20
2018-11-07T21:27:35.705Z,90.20
2018-11-07T21:30:04.120Z,90.90
2018-11-07T21:32:32.250Z,90.40
2018-11-07T21:35:00.429Z,90.80
2018-11-07T21:37:28.517Z,91.00
2018-11-07T21:39:56.653Z,90.70
2018-11-07T21:42:24.843Z,90.70
2018-11-07T21:44:52.969Z,91.30
2018-11-07T21:47:21.102Z,91.00
2018-11-07T21:49:49.233Z,91.60
2018-11-07T21:52:17.361Z,91.20
2018-11-07T21:54:45.538Z,91.30
2018-11-07T21:57:13.642Z,91.60
2018-11-07T21:59:41.773Z,91.40
2018-11-07T22:02:09.909Z,91.60
2018-11-07T22:04:38.058Z,91.50
2018-11-07T22:07:06.465Z,91.50
2018-11-07T22:09:34.603Z,91.70
2018-11-07T22:12:02.745Z,91.50
2018-11-07T22:14:30.878Z,91.70
2018-11-07T22:16:59.013Z,92.20
2018-11-07T22:19:27.158Z,92.10
2018-11-07T22:21:55.378Z,92.00
2018-11-07T22:24:23.610Z,91.80
2018-11-07T22:26:51.685Z,92.50
2018-11-07T22:29:19.817Z,92.80
2018-11-07T22:31:47.940Z,92.60
2018-11-07T22:34:16.098Z,92.60
2018-11-07T22:36:44.303Z,92.50
2018-11-07T22:39:13.750Z,92.70
2018-11-07T22:41:42.638Z,92.70
2018-11-07T22:44:11.019Z,93.00
2018-11-07T22:46:39.413Z,92.90
2018-11-07T22:49:07.578Z,92.60
2018-11-07T22:51:36.544Z,92.70
2018-11-07T22:54:05.339Z,93.30
2018-11-07T22:56:33.560Z,93.20
2018-11-07T22:59:01.678Z,93.10
2018-11-07T23:01:35.336Z,92.90
2018-11-07T23:04:03.446Z,93.10
2018-11-07T23:06:31.549Z,92.80
2018-11-07T23:08:59.683Z,93.00
2018-11-07T23:11:27.777Z,93.10
2018-11-07T23:13:56.054Z,93.10
2018-11-07T23:16:24.157Z,93.50
2018-11-07T23:18:52.263Z,93.80
2018-11-07T23:21:20.369Z,93.70
2018-11-07T23:23:48.502Z,93.70
2018-11-07T23:26:16.614Z,93.80
2018-11-07T23:28:44.725Z,93.70
2018-11-07T23:31:12.826Z,93.90
2018-11-07T23:33:40.935Z,94.00
2018-11-07T23:36:09.053Z,93.80
2018-11-07T23:38:37.158Z,93.50
2018-11-07T23:41:06.137Z,93.60
2018-11-07T23:43:34.264Z,93.90
2018-11-07T23:46:02.373Z,94.00
2018-11-07T23:48:30.488Z,93.70
2018-11-07T23:50:58.589Z,93.50
2018-11-07T23:53:26.699Z,93.70
2018-11-07T23:55:54.806Z,93.50
2018-11-07T23:58:23.766Z,93.60
